Time;durP1;ratioP1;P1;durP2;ratioP2;P2;SDS_P1;SDS_P2;PMS_P1;PMS_P2;Temp;Humidity;BMP_temperature;BMP_pressure;BME280_temperature;BME280_humidity;BME280_pressure;Samples;Min_cycle;Max_cycle;Signal;HPM_P1;HPM_P2
2023/03/13 00:01:29;;;;;;;19.80;4.32;;;8.60;99.90;;;;;;5094314;28;20828;-76
2023/03/13 00:03:55;;;;;;;16.27;3.40;;;8.60;99.90;;;;;;5091171;28;20775;-76
2023/03/13 00:06:24;;;;;;;22.08;4.28;;;8.60;99.90;;;;;;5092665;28;20408;-76
2023/03/13 00:08:49;;;;;;;19.13;3.33;;;8.60;99.90;;;;;;5092327;28;20459;-76
2023/03/13 00:11:15;;;;;;;24.30;4.13;;;8.60;99.90;;;;;;5090092;28;20421;-75
2023/03/13 00:13:42;;;;;;;27.17;5.00;;;8.60;99.90;;;;;;5091297;28;20398;-76
2023/03/13 00:16:14;;;;;;;26.70;4.32;;;8.60;99.90;;;;;;5090122;28;20411;-76
2023/03/13 00:18:45;;;;;;;19.88;3.70;;;8.60;99.90;;;;;;5058930;28;21441;-76
2023/03/13 00:21:12;;;;;;;24.70;4.73;;;8.60;99.90;;;;;;5085003;28;20443;-76
2023/03/13 00:23:37;;;;;;;23.63;4.70;;;8.60;99.90;;;;;;5095373;28;20418;-76
2023/03/13 00:26:16;;;;;;;24.42;4.47;;;8.50;99.90;;;;;;5078053;28;20547;-76
2023/03/13 00:28:42;;;;;;;25.88;4.68;;;8.60;99.90;;;;;;5089755;28;20402;-77
2023/03/13 00:31:14;;;;;;;27.15;5.13;;;8.60;99.90;;;;;;5091493;28;20787;-77
2023/03/13 00:33:45;;;;;;;28.45;5.22;;;8.50;99.90;;;;;;5089518;28;20415;-77
2023/03/13 00:36:13;;;;;;;28.33;5.22;;;8.50;99.90;;;;;;5089850;28;20425;-76
2023/03/13 00:38:40;;;;;;;24.88;5.00;;;8.40;99.90;;;;;;5090853;28;20429;-76
2023/03/13 00:41:11;;;;;;;28.52;6.00;;;8.40;99.90;;;;;;5079207;28;20404;-76
2023/03/13 00:43:37;;;;;;;28.60;5.55;;;8.40;99.90;;;;;;5091047;28;20410;-78
2023/03/13 00:46:04;;;;;;;28.98;4.93;;;8.40;99.90;;;;;;5089201;28;20405;-76
2023/03/13 00:48:30;;;;;;;27.13;5.22;;;8.40;99.90;;;;;;5074429;28;20412;-78
2023/03/13 00:50:55;;;;;;;26.70;4.97;;;8.40;99.90;;;;;;5085741;28;20396;-78
2023/03/13 00:53:22;;;;;;;26.23;4.90;;;8.40;99.90;;;;;;5087915;28;20398;-77
2023/03/13 00:55:59;;;;;;;31.65;5.20;;;8.40;99.90;;;;;;5089113;28;20398;-77
2023/03/13 00:58:27;;;;;;;37.28;5.43;;;8.40;99.90;;;;;;5083952;28;20441;-77
2023/03/13 01:00:53;;;;;;;31.20;5.22;;;8.40;99.90;;;;;;5074812;28;20408;-77
2023/03/13 01:03:20;;;;;;;27.27;4.93;;;8.40;99.90;;;;;;5088541;28;20406;-76
2023/03/13 01:05:58;;;;;;;31.27;5.65;;;8.40;99.90;;;;;;5071213;28;20466;-76
2023/03/13 01:08:24;;;;;;;32.10;6.03;;;8.30;99.90;;;;;;5088994;28;20433;-76
2023/03/13 01:10:49;;;;;;;31.63;5.13;;;8.40;99.90;;;;;;5089133;28;20451;-76
2023/03/13 01:13:15;;;;;;;28.58;5.95;;;8.40;99.90;;;;;;5088935;28;20438;-76
2023/03/13 01:15:40;;;;;;;26.50;5.00;;;8.40;99.90;;;;;;5088466;28;20901;-76
2023/03/13 01:18:06;;;;;;;30.87;5.67;;;8.40;99.90;;;;;;5089729;28;20416;-76
2023/03/13 01:20:32;;;;;;;29.58;5.30;;;8.40;99.90;;;;;;5088819;28;20438;-76
2023/03/13 01:22:57;;;;;;;28.63;5.90;;;8.40;99.90;;;;;;5087987;28;20861;-76
2023/03/13 01:25:23;;;;;;;25.80;5.10;;;8.40;99.90;;;;;;5088883;28;21070;-76
2023/03/13 01:27:49;;;;;;;30.67;5.67;;;8.40;99.90;;;;;;5087843;28;20451;-76
2023/03/13 01:30:14;;;;;;;24.30;5.20;;;8.40;99.90;;;;;;5087170;28;20461;-76
2023/03/13 01:32:40;;;;;;;26.02;5.13;;;8.40;99.90;;;;;;5087882;28;20402;-76
2023/03/13 01:35:06;;;;;;;29.47;5.63;;;8.50;99.90;;;;;;5088615;28;20776;-75
2023/03/13 01:37:32;;;;;;;30.65;5.65;;;8.50;99.90;;;;;;5070779;28;20408;-76
2023/03/13 01:39:58;;;;;;;35.35;5.97;;;8.50;99.90;;;;;;5087464;28;20434;-76
2023/03/13 01:42:24;;;;;;;27.88;5.47;;;8.50;99.90;;;;;;5088284;28;20851;-76
2023/03/13 01:44:54;;;;;;;25.58;4.95;;;8.50;99.90;;;;;;5087930;28;20402;-76
2023/03/13 01:47:20;;;;;;;26.35;4.63;;;8.50;99.90;;;;;;5086394;28;20406;-76
2023/03/13 01:49:46;;;;;;;25.77;5.30;;;8.50;99.90;;;;;;5087661;28;20442;-76
2023/03/13 01:52:17;;;;;;;31.48;5.38;;;8.50;99.90;;;;;;5089101;28;20431;-76
2023/03/13 01:54:47;;;;;;;29.00;5.53;;;8.50;99.90;;;;;;5088670;28;20398;-75
2023/03/13 01:57:20;;;;;;;28.13;4.50;;;8.40;99.90;;;;;;5087755;28;20417;-76
2023/03/13 01:59:52;;;;;;;25.38;4.90;;;8.40;99.90;;;;;;5075363;28;20426;-76
2023/03/13 02:02:17;;;;;;;30.35;5.05;;;8.40;99.90;;;;;;5089525;28;20403;-77
2023/03/13 02:04:51;;;;;;;25.17;4.35;;;8.40;99.90;;;;;;5088802;28;20398;-78
2023/03/13 02:07:22;;;;;;;25.67;5.53;;;8.40;99.90;;;;;;5087562;28;20764;-76
2023/03/13 02:09:52;;;;;;;29.98;5.32;;;8.40;99.90;;;;;;5086783;28;20978;-76
2023/03/13 02:12:36;;;;;;;27.70;5.00;;;8.30;99.90;;;;;;5083928;28;20834;-76
2023/03/13 02:15:15;;;;;;;25.73;5.43;;;8.30;99.90;;;;;;5082975;28;20402;-76
2023/03/13 02:17:42;;;;;;;26.75;4.75;;;8.40;99.90;;;;;;5079226;28;20435;-76
2023/03/13 02:20:09;;;;;;;28.52;4.75;;;8.30;99.90;;;;;;5072072;28;20477;-76
2023/03/13 02:23:05;;;;;;;25.02;4.93;;;8.40;99.90;;;;;;5071335;28;20478;-77
2023/03/13 02:25:47;;;;;;;29.63;4.75;;;8.40;99.90;;;;;;5086107;28;20464;-76
2023/03/13 02:28:20;;;;;;;29.88;4.40;;;8.30;99.90;;;;;;5085756;28;20472;-76
2023/03/13 02:30:48;;;;;;;25.50;4.60;;;8.40;99.90;;;;;;5087850;28;20398;-76
2023/03/13 02:33:14;;;;;;;25.50;4.50;;;8.40;99.90;;;;;;5086584;28;20939;-75
2023/03/13 02:35:43;;;;;;;25.42;5.30;;;8.40;99.90;;;;;;5087875;28;20398;-77
2023/03/13 02:38:12;;;;;;;29.23;4.93;;;8.40;99.90;;;;;;5087571;28;20398;-78
2023/03/13 02:40:42;;;;;;;24.23;5.28;;;8.40;99.90;;;;;;5086323;28;20513;-77
2023/03/13 02:43:13;;;;;;;24.83;4.78;;;8.40;99.90;;;;;;5087256;28;20463;-75
2023/03/13 02:45:39;;;;;;;26.15;5.13;;;8.40;99.90;;;;;;5086830;28;20402;-76
2023/03/13 02:48:04;;;;;;;26.37;5.30;;;8.40;99.90;;;;;;5087618;28;20409;-76
2023/03/13 02:50:31;;;;;;;24.30;5.57;;;8.40;99.90;;;;;;5088230;28;20394;-76
2023/03/13 02:53:06;;;;;;;28.23;4.78;;;8.40;99.90;;;;;;5087039;28;20763;-76
2023/03/13 02:55:39;;;;;;;24.98;5.43;;;8.40;99.90;;;;;;5088087;28;20828;-76
2023/03/13 02:58:05;;;;;;;27.85;5.68;;;8.40;99.90;;;;;;5087901;28;20771;-75
2023/03/13 03:00:31;;;;;;;23.53;5.07;;;8.40;99.90;;;;;;5057896;28;20435;-76
2023/03/13 03:02:57;;;;;;;25.83;4.72;;;8.40;99.90;;;;;;5076108;28;20394;-76
2023/03/13 03:05:22;;;;;;;24.90;4.82;;;8.40;99.90;;;;;;5070803;28;20769;-76
2023/03/13 03:07:49;;;;;;;24.77;5.10;;;8.40;99.90;;;;;;5075725;28;20907;-76
2023/03/13 03:10:16;;;;;;;20.73;4.50;;;8.40;99.90;;;;;;5086148;28;20771;-76
2023/03/13 03:12:42;;;;;;;26.65;5.15;;;8.30;99.90;;;;;;5086527;28;20786;-75
2023/03/13 03:15:08;;;;;;;20.35;4.68;;;8.40;99.90;;;;;;5087809;28;20484;-76
2023/03/13 03:17:34;;;;;;;19.70;4.53;;;8.40;99.90;;;;;;5086805;28;20477;-76
2023/03/13 03:19:59;;;;;;;18.67;4.28;;;8.40;99.90;;;;;;5090185;28;20920;-76
2023/03/13 03:22:25;;;;;;;18.13;4.07;;;8.40;99.90;;;;;;5092086;28;20414;-75
2023/03/13 03:24:51;;;;;;;14.48;3.67;;;8.40;99.90;;;;;;5094139;28;20401;-76
2023/03/13 03:27:16;;;;;;;15.63;3.90;;;8.50;99.90;;;;;;5092993;28;20439;-75
2023/03/13 03:29:42;;;;;;;16.88;4.20;;;8.50;99.90;;;;;;5089837;28;20407;-76
2023/03/13 03:32:08;;;;;;;15.97;3.73;;;8.50;99.90;;;;;;5091213;28;20401;-76
2023/03/13 03:34:33;;;;;;;10.20;3.50;;;8.50;99.90;;;;;;5090252;28;20466;-76
2023/03/13 03:36:59;;;;;;;11.82;3.42;;;8.60;99.90;;;;;;5086652;28;20406;-77
2023/03/13 03:39:25;;;;;;;16.63;3.30;;;8.60;99.90;;;;;;5090285;28;20486;-76
2023/03/13 03:41:50;;;;;;;11.55;3.10;;;8.60;99.90;;;;;;5083484;28;20426;-76
2023/03/13 03:44:16;;;;;;;13.83;3.03;;;8.60;99.90;;;;;;5082624;28;20417;-76
2023/03/13 03:46:41;;;;;;;11.77;3.10;;;8.60;99.90;;;;;;5089725;28;20405;-76
2023/03/13 03:49:07;;;;;;;10.77;3.20;;;8.70;99.90;;;;;;5089554;28;20523;-76
2023/03/13 03:51:33;;;;;;;12.27;2.85;;;8.70;99.90;;;;;;5090462;28;20446;-76
2023/03/13 03:53:58;;;;;;;11.27;2.70;;;8.70;99.90;;;;;;5090189;28;20501;-77
2023/03/13 03:56:24;;;;;;;6.83;2.40;;;8.70;99.90;;;;;;5089975;28;20402;-77
2023/03/13 03:58:50;;;;;;;9.60;2.63;;;8.70;99.90;;;;;;5089373;28;20783;-75
2023/03/13 04:01:15;;;;;;;9.47;2.30;;;8.80;99.90;;;;;;5090479;28;20402;-77
2023/03/13 04:03:41;;;;;;;7.63;2.50;;;8.80;99.90;;;;;;5089384;28;20406;-77
2023/03/13 04:06:08;;;;;;;7.57;2.30;;;8.80;99.90;;;;;;5073771;28;20782;-77
2023/03/13 04:08:33;;;;;;;6.18;1.80;;;8.80;99.90;;;;;;5090889;28;20394;-77
2023/03/13 04:11:00;;;;;;;7.47;2.20;;;8.90;99.90;;;;;;5087685;28;20421;-76
2023/03/13 04:13:26;;;;;;;8.05;2.28;;;8.90;99.90;;;;;;5073808;28;20402;-77
2023/03/13 04:15:52;;;;;;;5.83;2.13;;;9.00;99.90;;;;;;5073514;28;20418;-77
2023/03/13 04:18:17;;;;;;;5.70;2.05;;;9.00;99.90;;;;;;5089852;28;20414;-76
2023/03/13 04:20:44;;;;;;;6.03;2.17;;;9.00;99.90;;;;;;5090851;28;20426;-76
2023/03/13 04:23:09;;;;;;;5.00;1.70;;;9.10;99.90;;;;;;5090461;28;20394;-76
2023/03/13 04:25:35;;;;;;;6.17;2.03;;;9.10;99.90;;;;;;5089811;28;20408;-76
2023/03/13 04:28:01;;;;;;;7.18;2.05;;;9.10;99.90;;;;;;5089408;28;20429;-76
2023/03/13 04:30:26;;;;;;;6.33;2.20;;;9.10;99.90;;;;;;5088507;28;20398;-76
2023/03/13 04:32:52;;;;;;;5.23;2.00;;;9.10;99.90;;;;;;5088578;28;20775;-76
2023/03/13 04:35:18;;;;;;;3.80;1.88;;;9.20;99.90;;;;;;5088075;28;20440;-76
2023/03/13 04:37:43;;;;;;;10.70;2.20;;;9.20;99.90;;;;;;5088117;28;21343;-76
2023/03/13 04:40:11;;;;;;;4.72;1.80;;;9.20;99.90;;;;;;5081813;28;20431;-76
2023/03/13 04:42:37;;;;;;;4.50;2.07;;;9.20;99.90;;;;;;5082128;28;20398;-76
2023/03/13 04:45:03;;;;;;;4.47;1.90;;;9.20;99.90;;;;;;5077547;28;20414;-76
2023/03/13 04:47:28;;;;;;;5.40;2.20;;;9.20;99.90;;;;;;5088653;28;20413;-76
2023/03/13 04:49:54;;;;;;;7.60;2.55;;;9.30;99.90;;;;;;5089011;28;20398;-76
2023/03/13 04:52:20;;;;;;;6.83;2.30;;;9.40;99.90;;;;;;5088370;28;20475;-76
2023/03/13 04:54:45;;;;;;;6.15;2.53;;;9.50;99.90;;;;;;5090174;28;20402;-76
2023/03/13 04:57:11;;;;;;;6.10;3.00;;;9.50;99.90;;;;;;5089901;28;20856;-76
2023/03/13 04:59:36;;;;;;;7.30;2.97;;;9.60;99.90;;;;;;5070767;28;20430;-76
2023/03/13 05:02:02;;;;;;;7.03;3.40;;;9.70;99.90;;;;;;5080698;28;20446;-76
2023/03/13 05:04:28;;;;;;;6.30;3.25;;;9.70;99.90;;;;;;5077721;28;20492;-77
2023/03/13 05:06:54;;;;;;;7.45;3.90;;;9.80;99.90;;;;;;5073406;28;21290;-76
2023/03/13 05:09:19;;;;;;;7.37;3.63;;;9.80;99.90;;;;;;5084216;28;20442;-76
2023/03/13 05:11:45;;;;;;;9.43;3.67;;;9.80;99.90;;;;;;5079898;28;20406;-76
2023/03/13 05:14:10;;;;;;;8.13;3.87;;;9.90;99.90;;;;;;5071515;28;20445;-76
2023/03/13 05:16:38;;;;;;;7.73;4.00;;;9.90;99.90;;;;;;5087986;28;20471;-76
2023/03/13 05:19:03;;;;;;;9.23;3.67;;;9.90;99.90;;;;;;5084082;28;20477;-77
2023/03/13 05:21:29;;;;;;;8.93;3.80;;;9.90;99.90;;;;;;5079276;28;20414;-76
2023/03/13 05:23:54;;;;;;;8.53;3.57;;;10.00;99.90;;;;;;5070100;28;20447;-75
2023/03/13 05:26:20;;;;;;;9.40;4.63;;;10.00;99.90;;;;;;5065784;28;20405;-75
2023/03/13 05:28:46;;;;;;;7.50;3.47;;;10.00;99.90;;;;;;5082114;28;20403;-75
2023/03/13 05:31:11;;;;;;;6.43;3.33;;;10.10;99.90;;;;;;5080251;28;20493;-77
2023/03/13 05:33:37;;;;;;;7.87;3.60;;;10.10;99.90;;;;;;5083181;28;20408;-77
2023/03/13 05:36:03;;;;;;;8.50;3.75;;;10.10;99.90;;;;;;5080296;28;20402;-77
2023/03/13 05:38:29;;;;;;;9.18;4.07;;;10.10;99.90;;;;;;5087231;28;20406;-77
2023/03/13 05:40:54;;;;;;;9.50;4.43;;;10.20;99.90;;;;;;5088663;28;20429;-77
2023/03/13 05:43:20;;;;;;;8.27;4.63;;;10.30;99.90;;;;;;5070442;28;20501;-77
2023/03/13 05:45:45;;;;;;;8.43;4.87;;;10.40;99.90;;;;;;5088987;28;20402;-75
2023/03/13 05:48:11;;;;;;;12.63;5.20;;;10.40;99.90;;;;;;5089719;28;20756;-76
2023/03/13 05:50:37;;;;;;;10.53;4.60;;;10.50;99.90;;;;;;5088426;28;20486;-76
2023/03/13 05:53:02;;;;;;;11.05;4.38;;;10.60;99.90;;;;;;5089279;28;20406;-76
2023/03/13 05:55:28;;;;;;;9.85;3.60;;;10.70;99.90;;;;;;5088697;28;20386;-75
2023/03/13 05:57:54;;;;;;;9.57;4.17;;;10.70;99.90;;;;;;5058049;28;21187;-76
2023/03/13 06:00:20;;;;;;;10.43;4.00;;;10.80;99.90;;;;;;5081597;28;20461;-76
2023/03/13 06:02:45;;;;;;;8.73;3.50;;;10.90;99.90;;;;;;5078469;28;20745;-76
2023/03/13 06:05:11;;;;;;;6.53;3.17;;;10.90;99.90;;;;;;5088628;28;20398;-76
2023/03/13 06:07:36;;;;;;;9.87;3.60;;;10.90;99.90;;;;;;5090910;28;20394;-76
2023/03/13 06:10:03;;;;;;;12.03;3.70;;;11.00;99.90;;;;;;5088690;28;20428;-76
2023/03/13 06:12:29;;;;;;;9.60;3.77;;;11.00;99.90;;;;;;5086334;28;20402;-76
2023/03/13 06:14:54;;;;;;;10.60;3.63;;;11.00;99.90;;;;;;5089444;28;20452;-76
2023/03/13 06:17:20;;;;;;;7.67;3.00;;;11.00;99.90;;;;;;5089505;28;20398;-76
2023/03/13 06:19:46;;;;;;;13.05;3.10;;;11.00;99.90;;;;;;5069825;28;21141;-76
2023/03/13 06:22:11;;;;;;;9.05;3.50;;;11.00;99.90;;;;;;5091478;28;20488;-76
2023/03/13 06:24:37;;;;;;;10.70;3.30;;;11.00;99.90;;;;;;5086702;28;20489;-76
2023/03/13 06:27:03;;;;;;;9.57;3.03;;;11.00;99.90;;;;;;5090520;28;20398;-77
2023/03/13 06:29:28;;;;;;;9.40;2.70;;;11.10;99.90;;;;;;5086349;28;20427;-78
2023/03/13 06:31:54;;;;;;;10.27;3.17;;;11.10;99.90;;;;;;5087504;28;20491;-75
2023/03/13 06:34:20;;;;;;;9.03;3.03;;;11.00;99.90;;;;;;5088248;28;20940;-76
2023/03/13 06:36:45;;;;;;;11.53;3.70;;;11.00;99.90;;;;;;5087030;28;21095;-77
2023/03/13 06:39:11;;;;;;;10.32;2.90;;;11.10;99.90;;;;;;5088493;28;20432;-76
2023/03/13 06:41:37;;;;;;;8.70;3.17;;;11.10;99.90;;;;;;5087003;28;20822;-77
2023/03/13 06:44:03;;;;;;;9.70;3.20;;;11.10;99.90;;;;;;5087888;28;20485;-76
2023/03/13 06:46:30;;;;;;;11.43;4.20;;;11.10;99.90;;;;;;5087017;28;20402;-76
2023/03/13 06:48:57;;;;;;;10.68;3.28;;;11.00;99.90;;;;;;5088462;28;20402;-76
2023/03/13 06:51:25;;;;;;;15.38;4.97;;;11.00;99.90;;;;;;5088283;28;20420;-74
2023/03/13 06:53:51;;;;;;;10.18;4.32;;;11.00;99.90;;;;;;5090135;28;20409;-76
2023/03/13 06:56:17;;;;;;;10.55;4.15;;;11.10;99.90;;;;;;5088168;28;20419;-77
2023/03/13 06:58:45;;;;;;;14.97;4.63;;;11.10;99.90;;;;;;5073345;28;20436;-76
2023/03/13 07:01:13;;;;;;;11.27;4.75;;;11.10;99.90;;;;;;5079046;28;20394;-76
2023/03/13 07:03:40;;;;;;;12.15;4.25;;;11.10;99.90;;;;;;5091224;28;20815;-76
2023/03/13 07:06:07;;;;;;;11.15;4.30;;;11.20;99.90;;;;;;5087466;28;21281;-76
2023/03/13 07:08:33;;;;;;;12.75;4.22;;;11.10;99.90;;;;;;5084387;28;20816;-76
2023/03/13 07:11:03;;;;;;;12.73;4.55;;;11.20;99.90;;;;;;5091799;28;20405;-77
2023/03/13 07:13:29;;;;;;;14.15;4.60;;;11.20;99.90;;;;;;5080010;28;20435;-77
2023/03/13 07:15:54;;;;;;;11.68;3.33;;;11.20;99.90;;;;;;5092056;28;20405;-77
2023/03/13 07:18:22;;;;;;;10.37;4.07;;;11.20;99.90;;;;;;5091678;28;20398;-77
2023/03/13 07:20:55;;;;;;;9.60;3.90;;;11.20;99.90;;;;;;5091277;28;20499;-77
2023/03/13 07:23:22;;;;;;;9.95;3.50;;;11.20;99.90;;;;;;5090414;28;20417;-77
2023/03/13 07:25:56;;;;;;;11.75;3.83;;;11.20;99.90;;;;;;5077786;28;20406;-76
2023/03/13 07:28:23;;;;;;;12.63;4.72;;;11.20;99.90;;;;;;5091045;28;20432;-76
2023/03/13 07:30:49;;;;;;;11.45;4.43;;;11.30;99.90;;;;;;5091087;28;20403;-76
2023/03/13 07:33:15;;;;;;;9.52;3.80;;;11.30;99.90;;;;;;5104543;28;20396;-76
2023/03/13 07:35:51;;;;;;;9.50;3.20;;;11.30;99.90;;;;;;5090915;28;20394;-76
2023/03/13 07:38:17;;;;;;;10.48;3.55;;;11.30;99.90;;;;;;5086661;28;20482;-76
2023/03/13 07:40:54;;;;;;;11.95;3.53;;;11.30;99.90;;;;;;5062380;28;20946;-76
2023/03/13 07:43:20;;;;;;;12.03;3.00;;;11.40;99.90;;;;;;5090001;28;20406;-77
2023/03/13 07:45:57;;;;;;;13.67;3.87;;;11.40;99.90;;;;;;5090397;28;20908;-76
2023/03/13 07:48:26;;;;;;;13.02;3.50;;;11.40;99.90;;;;;;5090632;28;20445;-76
2023/03/13 07:50:54;;;;;;;10.65;3.45;;;11.40;99.90;;;;;;5088698;28;21009;-77
2023/03/13 07:53:20;;;;;;;10.40;3.43;;;11.50;99.90;;;;;;5089813;28;20459;-76
2023/03/13 07:56:00;;;;;;;10.60;2.80;;;11.50;99.90;;;;;;5090060;28;20928;-76
2023/03/13 07:58:28;;;;;;;10.65;3.20;;;11.50;99.90;;;;;;5089998;28;20903;-76
2023/03/13 08:00:53;;;;;;;12.43;3.92;;;11.50;99.90;;;;;;5090023;28;20451;-77
2023/03/13 08:03:19;;;;;;;11.50;2.90;;;11.50;99.90;;;;;;5087311;28;20398;-76
2023/03/13 08:05:45;;;;;;;9.55;2.83;;;11.50;99.90;;;;;;5091378;28;20456;-77
2023/03/13 08:08:10;;;;;;;9.83;2.83;;;11.50;99.90;;;;;;5088470;28;20402;-77
2023/03/13 08:10:36;;;;;;;11.23;3.08;;;11.40;99.90;;;;;;5076612;28;20398;-77
2023/03/13 08:13:02;;;;;;;7.53;2.55;;;11.40;99.90;;;;;;5088656;28;20467;-77
2023/03/13 08:15:28;;;;;;;8.47;2.50;;;11.40;99.90;;;;;;5087763;28;20402;-76
2023/03/13 08:17:54;;;;;;;6.57;2.40;;;11.40;99.90;;;;;;5079439;28;20433;-76
2023/03/13 08:20:20;;;;;;;8.50;2.33;;;11.40;99.90;;;;;;5085916;28;20513;-76
2023/03/13 08:22:47;;;;;;;7.67;2.23;;;11.40;99.90;;;;;;5089643;28;20394;-76
2023/03/13 08:25:13;;;;;;;5.07;2.33;;;11.40;99.90;;;;;;5086096;28;20477;-76
2023/03/13 08:27:38;;;;;;;6.85;1.80;;;11.40;99.90;;;;;;5079176;28;20414;-76
2023/03/13 08:30:05;;;;;;;5.90;1.93;;;11.40;99.90;;;;;;5104773;28;20868;-77
2023/03/13 08:32:34;;;;;;;6.40;1.67;;;11.40;99.90;;;;;;5109515;27;20475;-76
2023/03/13 08:35:00;;;;;;;5.80;1.97;;;11.40;99.90;;;;;;5092063;28;20430;-76
2023/03/13 08:37:25;;;;;;;6.17;1.90;;;11.40;99.90;;;;;;5089322;28;20465;-76
2023/03/13 08:39:53;;;;;;;8.00;1.98;;;11.50;99.90;;;;;;5089827;28;20449;-77
2023/03/13 08:42:18;;;;;;;6.15;1.10;;;11.60;99.90;;;;;;5090081;28;20914;-76
2023/03/13 08:44:44;;;;;;;7.07;1.58;;;11.70;99.90;;;;;;5089583;28;20436;-76
2023/03/13 08:47:10;;;;;;;5.87;1.57;;;11.80;99.90;;;;;;5089753;28;20399;-76
2023/03/13 08:49:35;;;;;;;5.18;1.45;;;11.90;99.90;;;;;;5088260;28;20412;-76
2023/03/13 08:52:04;;;;;;;6.10;1.00;;;12.20;99.90;;;;;;5079548;28;20768;-77
2023/03/13 08:54:30;;;;;;;5.40;1.40;;;12.30;99.90;;;;;;5089970;28;20394;-77
2023/03/13 08:56:56;;;;;;;4.57;0.90;;;12.40;99.90;;;;;;5088749;28;20406;-76
2023/03/13 08:59:21;;;;;;;3.90;0.90;;;12.50;99.90;;;;;;5089634;28;20421;-77
2023/03/13 09:01:47;;;;;;;4.05;0.80;;;12.60;99.90;;;;;;5088940;28;20431;-77
2023/03/13 09:04:13;;;;;;;5.40;0.90;;;12.70;99.90;;;;;;5090606;28;20418;-76
2023/03/13 09:06:38;;;;;;;4.82;0.85;;;12.70;99.90;;;;;;5089847;28;20416;-76
2023/03/13 09:09:05;;;;;;;5.67;0.87;;;12.80;99.90;;;;;;5090790;28;20398;-76
2023/03/13 09:11:32;;;;;;;4.35;0.77;;;12.90;99.90;;;;;;5089130;28;20454;-76
2023/03/13 09:13:58;;;;;;;4.05;0.60;;;13.00;99.90;;;;;;5091192;28;20398;-76
2023/03/13 09:16:26;;;;;;;5.00;0.82;;;13.10;99.90;;;;;;5090278;28;20578;-78
2023/03/13 09:18:52;;;;;;;4.00;0.80;;;13.20;99.90;;;;;;5090348;28;20414;-76
2023/03/13 09:21:24;;;;;;;4.53;0.73;;;13.20;99.90;;;;;;5081552;28;20423;-76
2023/03/13 09:23:50;;;;;;;4.47;0.90;;;13.30;99.90;;;;;;5068887;28;20410;-76
2023/03/13 09:26:18;;;;;;;4.10;0.70;;;13.60;99.90;;;;;;5081834;28;20764;-77
2023/03/13 09:28:43;;;;;;;2.85;0.55;;;13.90;99.90;;;;;;5082925;28;20415;-78
2023/03/13 09:31:15;;;;;;;2.63;0.70;;;13.80;99.90;;;;;;5062748;28;20394;-76
2023/03/13 09:33:43;;;;;;;4.35;1.10;;;13.60;99.90;;;;;;5087639;28;20431;-76
2023/03/13 09:36:09;;;;;;;3.90;0.50;;;13.50;99.90;;;;;;5088075;28;20904;-76
2023/03/13 09:38:36;;;;;;;5.32;0.80;;;13.40;99.90;;;;;;5088949;28;20445;-77
2023/03/13 09:41:13;;;;;;;4.78;0.80;;;13.40;99.90;;;;;;5070986;28;20488;-77
2023/03/13 09:43:42;;;;;;;6.75;1.20;;;13.40;99.90;;;;;;5076748;28;20409;-77
2023/03/13 09:46:23;;;;;;;4.28;0.95;;;13.40;99.90;;;;;;5087791;28;20402;-77
2023/03/13 09:48:57;;;;;;;5.22;0.80;;;13.30;99.90;;;;;;5089589;28;20489;-77
2023/03/13 09:51:37;;;;;;;9.77;1.67;;;13.10;99.90;;;;;;5089216;28;20414;-77
2023/03/13 09:54:27;;;;;;;7.35;1.58;;;13.00;99.90;;;;;;5088599;28;20410;-77
2023/03/13 09:56:57;;;;;;;8.35;1.70;;;12.90;99.90;;;;;;5078253;28;20403;-78
2023/03/13 10:00:16;;;;;;;7.50;1.58;;;12.90;99.90;;;;;;5087814;28;20430;-77
2023/03/13 10:02:52;;;;;;;6.68;1.50;;;13.00;99.90;;;;;;5093849;27;20768;-78
2023/03/13 10:05:25;;;;;;;8.15;1.48;;;12.90;99.90;;;;;;5087879;28;20409;-78
2023/03/13 10:08:15;;;;;;;7.60;1.37;;;12.90;99.90;;;;;;5088731;28;20525;-78
2023/03/13 10:10:56;;;;;;;7.53;1.20;;;13.00;99.90;;;;;;5087286;28;20553;-77
2023/03/13 10:13:41;;;;;;;8.93;1.90;;;13.00;99.90;;;;;;5089766;28;20835;-76
2023/03/13 10:16:27;;;;;;;6.20;1.40;;;13.30;99.90;;;;;;5089460;28;20410;-77
2023/03/13 10:18:57;;;;;;;7.57;1.20;;;13.90;99.90;;;;;;5088416;28;20509;-77
2023/03/13 10:21:30;;;;;;;8.60;1.67;;;14.40;99.90;;;;;;5086207;28;20960;-77
2023/03/13 10:24:04;;;;;;;8.95;1.52;;;14.80;99.90;;;;;;5088038;28;20449;-77
2023/03/13 10:26:35;;;;;;;7.50;1.25;;;15.20;99.90;;;;;;5076449;28;20439;-77
2023/03/13 10:29:17;;;;;;;9.18;1.58;;;15.70;99.90;;;;;;5067997;28;20414;-77
2023/03/13 10:31:49;;;;;;;6.60;1.48;;;16.20;99.90;;;;;;5082466;28;20437;-77
2023/03/13 10:34:14;;;;;;;11.07;2.08;;;16.50;99.90;;;;;;5088572;28;20768;-77
2023/03/13 10:36:46;;;;;;;10.93;1.83;;;16.70;99.90;;;;;;5069060;28;20398;-78
2023/03/13 10:39:21;;;;;;;11.15;2.00;;;16.90;99.90;;;;;;5087369;28;20511;-77
2023/03/13 10:41:49;;;;;;;10.40;1.70;;;16.90;99.90;;;;;;5086417;28;20437;-77
2023/03/13 10:44:20;;;;;;;8.20;1.60;;;16.80;99.90;;;;;;5086888;28;20410;-77
2023/03/13 10:46:48;;;;;;;8.27;2.10;;;16.80;99.90;;;;;;5081662;28;20905;-77
2023/03/13 10:49:19;;;;;;;9.45;1.88;;;17.00;99.90;;;;;;5080199;28;20460;-77
2023/03/13 10:51:53;;;;;;;13.35;2.30;;;17.00;99.90;;;;;;5076173;28;20409;-77
2023/03/13 10:54:34;;;;;;;10.38;2.25;;;17.20;99.90;;;;;;5088260;28;20404;-78
2023/03/13 10:57:17;;;;;;;11.90;2.20;;;17.40;99.90;;;;;;5086659;28;20418;-77
2023/03/13 10:59:46;;;;;;;11.40;1.63;;;17.30;99.90;;;;;;5085307;28;20441;-79
2023/03/13 11:02:32;;;;;;;10.85;1.90;;;16.80;99.90;;;;;;5088281;28;20398;-77
2023/03/13 11:04:58;;;;;;;10.43;2.10;;;16.40;99.90;;;;;;5087565;28;20497;-78
2023/03/13 11:07:26;;;;;;;10.80;2.00;;;16.10;99.90;;;;;;5087884;28;20409;-79
2023/03/13 11:10:31;;;;;;;13.95;2.30;;;15.80;99.90;;;;;;5087774;28;20440;-78
2023/03/13 11:12:58;;;;;;;13.23;2.63;;;15.60;99.90;;;;;;5076980;28;20417;-78
2023/03/13 11:15:55;;;;;;;11.77;2.35;;;15.70;99.90;;;;;;5087540;28;20940;-78
2023/03/13 11:18:28;;;;;;;9.90;1.42;;;15.80;99.90;;;;;;5089429;28;20493;-78
2023/03/13 11:20:57;;;;;;;12.15;2.40;;;15.50;99.90;;;;;;5074450;28;20590;-78
2023/03/13 11:23:31;;;;;;;14.73;2.10;;;15.40;99.90;;;;;;5088661;28;20406;-78
2023/03/13 11:26:20;;;;;;;7.70;1.88;;;15.50;99.90;;;;;;5087948;28;20398;-78
2023/03/13 11:29:05;;;;;;;11.80;2.13;;;15.50;99.90;;;;;;5086266;28;20488;-77
2023/03/13 11:31:38;;;;;;;12.82;1.88;;;15.90;99.90;;;;;;5087787;28;20478;-77
2023/03/13 11:34:10;;;;;;;12.18;1.80;;;16.00;99.90;;;;;;5088026;28;20406;-77
2023/03/13 11:36:48;;;;;;;8.70;1.60;;;16.00;99.90;;;;;;5073940;28;20510;-77
2023/03/13 11:39:51;;;;;;;10.70;2.10;;;16.00;99.90;;;;;;5088918;28;20429;-77
2023/03/13 11:42:54;;;;;;;10.05;1.70;;;15.70;99.90;;;;;;5091775;28;20445;-77
2023/03/13 11:45:55;;;;;;;11.13;2.22;;;15.50;99.90;;;;;;5080218;28;20413;-78
2023/03/13 11:48:53;;;;;;;9.65;1.90;;;15.40;99.90;;;;;;5076839;28;20428;-77
2023/03/13 11:51:37;;;;;;;10.00;2.08;;;15.30;99.90;;;;;;5089472;28;20914;-77
2023/03/13 11:54:24;;;;;;;11.55;2.10;;;15.30;99.90;;;;;;5089765;28;20881;-77
2023/03/13 11:56:53;;;;;;;11.15;1.90;;;15.20;99.90;;;;;;5079258;28;20402;-76
2023/03/13 11:59:51;;;;;;;8.02;1.17;;;15.00;99.90;;;;;;5091208;28;20432;-79
2023/03/13 12:02:38;;;;;;;10.00;1.52;;;15.10;99.90;;;;;;5089450;28;20425;-76
2023/03/13 12:05:09;;;;;;;9.38;1.55;;;15.20;99.90;;;;;;5090547;28;20406;-77
2023/03/13 12:07:37;;;;;;;7.95;1.40;;;15.40;99.90;;;;;;5103696;28;20870;-77
2023/03/13 12:10:13;;;;;;;7.55;1.42;;;16.00;99.90;;;;;;5083930;28;20909;-77
2023/03/13 12:12:40;;;;;;;6.37;1.60;;;16.40;99.90;;;;;;5089990;28;20410;-78
2023/03/13 12:15:30;;;;;;;6.72;1.17;;;16.30;99.90;;;;;;5089792;28;20436;-77
2023/03/13 12:18:17;;;;;;;5.88;1.13;;;16.00;99.90;;;;;;5084750;28;20982;-78
2023/03/13 12:21:11;;;;;;;7.57;1.13;;;15.80;99.90;;;;;;5089898;28;20753;-78
2023/03/13 12:23:49;;;;;;;7.75;1.95;;;15.60;99.90;;;;;;5072847;28;20463;-77
2023/03/13 12:26:19;;;;;;;6.20;1.30;;;15.50;99.90;;;;;;5079028;28;20407;-76
2023/03/13 12:28:57;;;;;;;9.45;1.83;;;15.50;99.90;;;;;;5088210;28;20420;-76
2023/03/13 12:31:29;;;;;;;9.55;1.35;;;15.40;99.90;;;;;;5089658;28;20768;-77
2023/03/13 12:34:16;;;;;;;7.83;1.57;;;15.20;99.90;;;;;;5077924;28;20757;-77
2023/03/13 12:37:20;;;;;;;9.27;1.80;;;15.20;99.90;;;;;;5087801;28;20422;-77
2023/03/13 12:39:55;;;;;;;11.48;2.22;;;15.10;99.90;;;;;;5026425;28;20446;-77
2023/03/13 12:42:43;;;;;;;11.20;2.13;;;15.10;99.90;;;;;;5079743;28;20410;-78
2023/03/13 12:45:18;;;;;;;10.93;2.10;;;15.30;99.90;;;;;;5088286;28;20927;-77
2023/03/13 12:48:11;;;;;;;11.25;2.35;;;15.50;99.90;;;;;;5088493;28;20415;-76
2023/03/13 12:50:43;;;;;;;13.18;2.15;;;15.60;99.90;;;;;;5080267;28;20418;-76
2023/03/13 12:53:34;;;;;;;11.97;2.00;;;15.60;99.90;;;;;;5084781;28;20404;-79
2023/03/13 12:56:05;;;;;;;10.15;2.25;;;16.10;99.90;;;;;;5083853;28;20421;-77
2023/03/13 12:58:59;;;;;;;10.73;1.83;;;16.70;99.90;;;;;;5081923;28;20954;-77
2023/03/13 13:01:49;;;;;;;10.80;2.30;;;16.90;99.90;;;;;;5087560;28;20417;-79